Delta, Utah Weather observations

Data are for observation ending at time listed.
 Day   Time    Ave.   Ave.  Ave.  Vector   Max.   Stn.    Total    Solar   Ave.  
  of    of     Air    Rel.  Wind   Wind    Wind   Baro.  Precip.   Rad.    Soil  
Year   Day     Temp.  Hum.  Speed  Dir.    Gust   Pres.                    Temp. 
2016   (MST)    F      %     mph   deg.    mph     mb.     in.     W/m2     F   
------------------------------------------------------------------------------
 176   19:50   83.0    12    5.4   346     11.7   856.9    0.00       9    82.7
 176   20:00   82.3    13    4.3   342      9.4   857.0    0.00       6    82.3
 176   20:10   81.8    13    5.0   344     10.6   857.1    0.00       2    82.1
 176   20:20   81.1    13    4.5   344     10.0   857.3    0.00       0    82.0
 176   20:30   80.5    14    4.0   350      8.8   857.4    0.00       0    81.8
 176   20:40   79.5    14    4.0   356      9.3   857.6    0.00       0    81.5
 176   20:50   78.8    15    3.8   356      8.3   857.9    0.00       0    81.4
 176   21:00   78.0    15    3.9   358      7.7   858.2    0.00       0    81.0
 176   21:10   77.7    15    3.9   355      7.7   858.3    0.00       0    81.0
 176   21:20   77.4    16    2.3   345      5.0   858.5    0.00       0    80.7
 176   21:30   76.5    17    2.4   346      6.0   858.8    0.00       0    80.5
 176   21:40   76.1    18    2.3   351      4.6   859.0    0.00       0    80.4
 176   21:50   75.5    20    1.4    19      3.3   859.2    0.00       0    80.0
 176   22:00   74.8    21    1.5   344      3.0   859.3    0.00       0    79.9
 176   22:10   74.4    21    2.3   352      6.7   859.5    0.00       0    79.8
 176   22:20   74.8    21    3.9    25      9.1   859.6    0.00       0    79.6
 176   22:30   74.2    22    3.3    30      8.8   859.6    0.00       0    79.5
 176   22:40   73.8    22    3.9    20      8.5   859.7    0.00       0    79.3
 176   22:50   73.3    24    3.4    20      7.2   859.8    0.00       0    79.2
 176   23:00   72.8    25    2.8    21      6.4   859.9    0.00       0    79.1
 176   23:10   72.2    26    3.1    19      7.8   860.0    0.00       0    78.9
 176   23:20   71.6    26    3.1    15      8.6   860.2    0.00       0    78.7
 176   23:30   71.0    27    3.2    21      6.6   860.4    0.00       0    78.7
 176   23:40   71.0    29    3.6    14      9.3   860.5    0.00       0    78.5
 176   23:50   71.4    31    3.9    24     10.8   860.5    0.00       0    78.3
 177    0:00   71.9    32    3.6    10      8.6   860.7    0.00       0    78.2
 177    0:10   70.8    33    3.4   332      7.4   860.8    0.00       0    78.1
 177    0:20   69.2    34    2.5   341      6.3   861.0    0.00       0    77.9
 177    0:30   68.3    36    1.8   344      4.5   861.1    0.00       0    77.9
 177    0:40   67.7    36    2.5   343      6.2   861.3    0.00       0    77.7
 177    0:50   67.0    39    1.4   350      3.7   861.4    0.00       0    77.6
 177    1:00   66.4    40    1.9   342      4.2   861.5    0.00       0    77.5
 177    1:10   66.0    42    2.3   360      6.0   861.6    0.00       0    77.4
 177    1:20   65.3    42    2.5   338      6.6   861.8    0.00       0    77.3
 177    1:30   64.7    42    1.8   338      3.6   862.0    0.00       0    77.1
 177    1:40   64.0    41    2.4   334      4.8   862.2    0.00       0    77.0
 177    1:50   63.3    42    3.0   347      5.6   862.2    0.00       0    76.9
 177    2:00   63.0    43    2.2     3      4.7   862.3    0.00       0    76.9
 177    2:10   62.9    42    3.6   334      8.0   862.4    0.00       0    76.7
 177    2:20   63.0    42    3.9   350      8.2   862.5    0.00       0    76.7
 177    2:30   63.0    40    4.2   345      8.9   862.5    0.00       0    76.5
 177    2:40   63.0    39    3.1     4      6.9   862.6    0.00       0    76.4
 177    2:50   62.9    38    3.7   338      7.2   862.6    0.00       0    76.3
 177    3:00   62.7    38    3.9   352      8.1   862.7    0.00       0    76.2
 177    3:10   62.4    37    4.3   344     10.4   862.8    0.00       0    76.2
 177    3:20   61.9    38    3.2   346      6.7   862.9    0.00       0    75.9
 177    3:30   61.4    39    3.4   356      8.2   863.1    0.00       0    76.0
 177    3:40   60.7    40    4.5   340      8.3   863.2    0.00       0    75.7
 177    3:50   60.3    39    4.2   346      8.8   863.3    0.00       0    75.6
 177    4:00   60.2    38    4.5   351      8.5   863.4    0.00       0    75.5
 177    4:10   60.3    38    4.0   355      8.8   863.5    0.00       0    75.4
 177    4:20   60.0    38    3.4   351      8.3   863.7    0.00       0    75.3
 177    4:30   59.9    37    3.1   355      8.3   863.9    0.00       0    75.1
 177    4:40   59.6    36    3.8   350      7.7   863.9    0.00       0    75.0
 177    4:50   59.3    36    4.2   352      9.8   864.1    0.00       0    74.9
 177    5:00   59.0    36    3.4   354      8.9   864.3    0.00       0    74.6
 177    5:10   58.6    36    3.3   354      7.4   864.4    0.00       2    74.8
 177    5:20   58.5    36    3.0   347      7.0   864.5    0.00       6    74.6
 177    5:30   58.3    36    4.0   343      8.4   864.5    0.00      11    74.4
 177    5:40   58.7    35    3.4   345      8.7   864.6    0.00      18    74.2
 177    5:50   58.7    35    3.5     3      6.9   864.8    0.00      24    74.2
 177    6:00   58.2    37    2.9     1      6.4   864.9    0.00      39    74.0
 177    6:10   58.5    37    3.0   356      6.1   865.0    0.00     114    73.9
 177    6:20   59.0    37    3.1   335      5.8   865.1    0.00     137    73.7
 177    6:30   59.8    38    2.6   345      5.3   865.2    0.00     165    73.7
 177    6:40   60.7    37    2.5   339      4.8   865.2    0.00     191    73.6
 177    6:50   61.5    37    2.8   345      6.5   865.2    0.00     218    73.4
 177    7:00   63.1    35    2.6   342      6.5   865.3    0.00     242    73.3
 177    7:10   63.4    33    3.3   333      8.0   865.3    0.00     266    73.3
 177    7:20   63.8    32    4.0   334      8.6   865.5    0.00     296    73.3
 177    7:30   64.2    31    4.1   330      9.1   865.5    0.00     324    73.3
 177    7:40   65.0    30    3.6   336      7.0   865.5    0.00     352    73.2
 177    7:50   66.0    30    3.7   350      8.1   865.6    0.00     377    73.1
 177    8:00   66.7    30    2.8   330      6.8   865.5    0.00     403    73.2
 177    8:10   67.1    29    4.0   345      8.2   865.5    0.00     428    73.1
 177    8:20   67.9    29    3.4   328      6.6   865.5    0.00     454    73.1
 177    8:30   68.3    28    3.5   358      7.6   865.7    0.00     480    73.2
 177    8:40   68.9    27    3.4   348      6.5   865.7    0.00     507    73.2
 177    8:50   69.6    27    2.8   344      5.9   865.7    0.00     532    73.3
 177    9:00   70.0    26    3.5   317      8.7   865.6    0.00     556    73.3
 177    9:10   70.4    26    3.0   324      6.2   865.6    0.00     579    73.4
 177    9:20   70.8    25    3.0   301      8.2   865.6    0.00     602    73.5
 177    9:30   71.1    25    2.5   301      6.9   865.5    0.00     624    73.7
 177    9:40   71.7    24    3.3   343      7.0   865.4    0.00     645    73.8
 177    9:50   72.3    24    2.1   349      4.7   865.4    0.00     665    73.9
 177   10:00   72.8    24    2.8   297      6.4   865.3    0.00     683    74.1
 177   10:10   72.8    23    3.7   346      7.4   865.3    0.00     700    74.3
 177   10:20   73.4    23    3.2   295      6.5   865.1    0.00     715    74.4
 177   10:30   73.2    23    3.3   299      6.9   865.1    0.00     730    74.8
 177   10:40   73.5    24    3.9   289      8.3   865.0    0.00     743    74.9
 177   10:50   73.7    23    3.9   280     10.5   865.0    0.00     758    75.2
 177   11:00   74.2    23    3.6   281      8.4   864.9    0.00     770    75.5
 177   11:10   75.1    22    4.1   312      9.3   864.9    0.00     780    75.7
 177   11:20   75.6    21    3.5   318      7.9   864.8    0.00     789    75.9
 177   11:30   75.8    21    3.9   311      7.9   864.8    0.00     795    76.0
 177   11:40   76.4    21    3.4   284      7.7   864.7    0.00     802    76.4
 177   11:50   77.2    20    3.5   326      9.4   864.7    0.00     807    76.6
 177   12:00   77.8    18    3.8   313      7.2   864.7    0.00     811    76.8
 177   12:10   78.2    18    4.2   344      8.4   864.6    0.00     814    77.1
 177   12:20   78.9    18    3.6   329      7.8   864.5    0.00     817    77.3
 177   12:30   78.9    16    4.4   335     10.4   864.4    0.00     817    77.5
 177   12:40   79.1    17    3.8   354     10.2   864.3    0.00     817    77.8
 177   12:50   79.9    16    4.1   327      9.9   864.2    0.00     816    78.1
 177   13:00   80.5    16    3.2   321      8.9   864.1    0.00     818    78.4
 177   13:10   80.2    16    3.6   320      7.8   864.0    0.00     811    78.7
 177   13:20   80.3    16    5.5   354     11.1   864.0    0.00     802    79.0
 177   13:30   80.6    15    3.3   317      8.8   863.9    0.00     797    79.2
 177   13:40   80.9    15    3.9   324     11.9   863.9    0.00     790    79.6
 177   13:50   80.9    16    3.6   316      8.1   863.8    0.00     782    79.8
 177   14:00   81.3    15    4.1   313      9.1   863.7    0.00     773    80.0
 177   14:10   81.8    15    4.0   312      8.6   863.7    0.00     762    80.1
 177   14:20   81.7    15    3.9   276      8.0   863.6    0.00     749    80.3
 177   14:30   82.1    15    4.0   305      8.0   863.4    0.00     738    80.4
 177   14:40   82.3    14    3.9   302      8.7   863.4    0.00     549    80.6
 177   14:50   82.6    14    3.5   287      8.8   863.3    0.00     158    80.8
 177   15:00   82.8    14    3.6   292      8.6   863.3    0.00     527    80.8
 177   15:10   82.7    14    4.0   311      7.6   863.2    0.00     629    81.1
 177   15:20   82.9    14    4.0   296      7.2   863.1    0.00     457    81.1
 177   15:30   82.7    14    3.5   300      7.6   863.1    0.00     499    81.3
 177   15:40   83.3    14    3.0   302      7.2   863.0    0.00     510    81.4
 177   15:50   83.6    14    3.8   296      7.4   862.8    0.00     584    81.4
 177   16:00   83.8    13    3.7   292      6.4   862.7    0.00     483    81.5
 177   16:10   83.5    13    3.1   273      7.7   862.6    0.00     245    81.6
 177   16:20   83.4    13    3.7   287      7.1   862.6    0.00      86    81.8
 177   16:30   83.3    13    3.1   286      7.4   862.5    0.00     264    81.9
 177   16:40   83.5    14    2.7   289      6.0   862.5    0.00     467    82.0
 177   16:50   83.6    13    3.2   310      6.3   862.4    0.00     459    82.0
 177   17:00   83.8    13    2.4   299      6.8   862.3    0.00     434    82.1
 177   17:10   83.7    13    3.4   332      8.0   862.3    0.00     255    82.1
 177   17:20   83.8    14    3.1   312      7.4   862.2    0.00      35    82.1
 177   17:30   83.7    13    2.6   316      5.1   862.1    0.00     166    82.1
 177   17:40   84.0    14    2.5   304      5.4   862.1    0.00     207    82.1
 177   17:50   84.0    13    2.7   324      5.8   862.1    0.00     306    82.0
 177   18:00   83.9    13    2.8   314      6.9   862.1    0.00     279    82.0
 177   18:10   83.6    13    3.6   322      6.6   862.1    0.00     122    82.1
 177   18:20   83.2    13    3.1   317      5.9   862.1    0.00      30    82.0
 177   18:30   82.9    13    3.1   322      6.6   862.1    0.00      30    82.1
 177   18:40   82.8    13    3.1   335      6.6   862.1    0.00     111    82.0
 177   18:50   82.5    12    3.0   334      6.6   862.1    0.00     152    82.0
 177   19:00   82.2    13    2.6   353      6.3   862.1    0.00     126    81.9
 177   19:10   81.1    14    1.7   338      3.9   862.1    0.00      30    81.8
 177   19:20   80.4    14    1.4   322      3.7   862.2    0.00      18    81.9
 177   19:30   79.6    14    1.5   322      3.9   862.2    0.00      15    81.8
 177   19:40   78.9    14    2.2   328      4.6   862.2    0.00      11    81.7

Return to Delta, Utah graphs page.


Western Regional Climate Center,wrcc@dri.edu